sensor_id;sensor_type;location;lat;lon;timestamp;P1;durP1;ratioP1;P2;durP2;ratioP2
17592;SDS011;8915;51.760;14.300;2023-02-22T00:01:12;8.40;;;2.20;;
17592;SDS011;8915;51.760;14.300;2023-02-22T00:03:47;8.37;;;1.47;;
17592;SDS011;8915;51.760;14.300;2023-02-22T00:06:18;5.20;;;1.70;;
17592;SDS011;8915;51.760;14.300;2023-02-22T00:08:49;4.47;;;1.87;;
17592;SDS011;8915;51.760;14.300;2023-02-22T00:11:16;4.87;;;1.50;;
17592;SDS011;8915;51.760;14.300;2023-02-22T00:13:44;9.73;;;1.97;;
17592;SDS011;8915;51.760;14.300;2023-02-22T00:16:12;5.23;;;1.83;;
17592;SDS011;8915;51.760;14.300;2023-02-22T00:18:41;6.10;;;1.70;;
17592;SDS011;8915;51.760;14.300;2023-02-22T00:21:08;6.50;;;2.00;;
17592;SDS011;8915;51.760;14.300;2023-02-22T00:23:38;6.20;;;2.07;;
17592;SDS011;8915;51.760;14.300;2023-02-22T00:26:07;8.53;;;1.90;;
17592;SDS011;8915;51.760;14.300;2023-02-22T00:28:35;2.60;;;1.63;;
17592;SDS011;8915;51.760;14.300;2023-02-22T00:31:02;11.17;;;2.13;;
17592;SDS011;8915;51.760;14.300;2023-02-22T00:33:29;13.70;;;2.00;;
17592;SDS011;8915;51.760;14.300;2023-02-22T00:35:56;9.03;;;1.90;;
17592;SDS011;8915;51.760;14.300;2023-02-22T00:38:22;5.83;;;1.70;;
17592;SDS011;8915;51.760;14.300;2023-02-22T00:40:50;4.77;;;1.50;;
17592;SDS011;8915;51.760;14.300;2023-02-22T00:43:17;7.13;;;1.83;;
17592;SDS011;8915;51.760;14.300;2023-02-22T00:45:43;5.00;;;2.23;;
17592;SDS011;8915;51.760;14.300;2023-02-22T00:48:09;5.37;;;1.93;;
17592;SDS011;8915;51.760;14.300;2023-02-22T00:50:36;10.30;;;2.33;;
17592;SDS011;8915;51.760;14.300;2023-02-22T00:53:03;5.57;;;1.80;;
17592;SDS011;8915;51.760;14.300;2023-02-22T00:55:35;10.33;;;2.17;;
17592;SDS011;8915;51.760;14.300;2023-02-22T00:58:04;8.07;;;2.37;;
17592;SDS011;8915;51.760;14.300;2023-02-22T01:00:33;8.13;;;1.93;;
17592;SDS011;8915;51.760;14.300;2023-02-22T01:03:01;7.37;;;2.33;;
17592;SDS011;8915;51.760;14.300;2023-02-22T01:05:29;12.03;;;2.30;;
17592;SDS011;8915;51.760;14.300;2023-02-22T01:07:57;16.57;;;2.47;;
17592;SDS011;8915;51.760;14.300;2023-02-22T01:10:26;7.27;;;2.10;;
17592;SDS011;8915;51.760;14.300;2023-02-22T01:12:56;4.50;;;2.07;;
17592;SDS011;8915;51.760;14.300;2023-02-22T01:15:27;9.73;;;1.80;;
17592;SDS011;8915;51.760;14.300;2023-02-22T01:17:55;12.77;;;2.07;;
17592;SDS011;8915;51.760;14.300;2023-02-22T01:20:23;10.37;;;2.17;;
17592;SDS011;8915;51.760;14.300;2023-02-22T01:22:52;7.73;;;2.00;;
17592;SDS011;8915;51.760;14.300;2023-02-22T01:25:22;4.20;;;1.83;;
17592;SDS011;8915;51.760;14.300;2023-02-22T01:27:50;11.30;;;2.30;;
17592;SDS011;8915;51.760;14.300;2023-02-22T01:30:18;6.07;;;1.90;;
17592;SDS011;8915;51.760;14.300;2023-02-22T01:32:48;8.60;;;2.50;;
17592;SDS011;8915;51.760;14.300;2023-02-22T01:35:19;8.20;;;2.37;;
17592;SDS011;8915;51.760;14.300;2023-02-22T01:37:46;7.03;;;2.37;;
17592;SDS011;8915;51.760;14.300;2023-02-22T01:40:14;10.93;;;2.00;;
17592;SDS011;8915;51.760;14.300;2023-02-22T01:42:46;11.37;;;2.30;;
17592;SDS011;8915;51.760;14.300;2023-02-22T01:48:23;14.47;;;2.83;;
17592;SDS011;8915;51.760;14.300;2023-02-22T01:50:53;7.43;;;1.80;;
17592;SDS011;8915;51.760;14.300;2023-02-22T01:53:26;4.27;;;1.77;;
17592;SDS011;8915;51.760;14.300;2023-02-22T01:55:58;9.50;;;2.47;;
17592;SDS011;8915;51.760;14.300;2023-02-22T01:58:27;9.73;;;2.07;;
17592;SDS011;8915;51.760;14.300;2023-02-22T02:00:55;7.80;;;1.67;;
17592;SDS011;8915;51.760;14.300;2023-02-22T02:03:25;5.13;;;2.30;;
17592;SDS011;8915;51.760;14.300;2023-02-22T02:05:55;3.83;;;2.07;;
17592;SDS011;8915;51.760;14.300;2023-02-22T02:08:28;4.03;;;1.60;;
17592;SDS011;8915;51.760;14.300;2023-02-22T02:11:01;4.20;;;2.00;;
17592;SDS011;8915;51.760;14.300;2023-02-22T02:13:29;6.57;;;1.97;;
17592;SDS011;8915;51.760;14.300;2023-02-22T02:15:56;4.43;;;2.03;;
17592;SDS011;8915;51.760;14.300;2023-02-22T02:18:24;12.97;;;5.70;;
17592;SDS011;8915;51.760;14.300;2023-02-22T02:20:57;9.57;;;4.27;;
17592;SDS011;8915;51.760;14.300;2023-02-22T02:23:54;8.17;;;3.67;;
17592;SDS011;8915;51.760;14.300;2023-02-22T02:26:42;7.60;;;3.57;;
17592;SDS011;8915;51.760;14.300;2023-02-22T02:29:39;10.20;;;2.70;;
17592;SDS011;8915;51.760;14.300;2023-02-22T02:32:29;6.93;;;2.73;;
17592;SDS011;8915;51.760;14.300;2023-02-22T02:35:08;4.73;;;2.37;;
17592;SDS011;8915;51.760;14.300;2023-02-22T02:37:42;6.03;;;2.33;;
17592;SDS011;8915;51.760;14.300;2023-02-22T02:40:18;7.03;;;2.33;;
17592;SDS011;8915;51.760;14.300;2023-02-22T02:42:50;7.17;;;2.50;;
17592;SDS011;8915;51.760;14.300;2023-02-22T02:45:25;8.40;;;2.13;;
17592;SDS011;8915;51.760;14.300;2023-02-22T02:47:57;9.77;;;2.70;;
17592;SDS011;8915;51.760;14.300;2023-02-22T02:50:29;5.70;;;2.50;;
17592;SDS011;8915;51.760;14.300;2023-02-22T02:53:00;5.47;;;1.90;;
17592;SDS011;8915;51.760;14.300;2023-02-22T02:55:30;8.20;;;2.00;;
17592;SDS011;8915;51.760;14.300;2023-02-22T02:58:01;7.80;;;2.23;;
17592;SDS011;8915;51.760;14.300;2023-02-22T03:00:30;6.73;;;2.37;;
17592;SDS011;8915;51.760;14.300;2023-02-22T03:03:11;7.33;;;1.90;;
17592;SDS011;8915;51.760;14.300;2023-02-22T03:06:14;8.67;;;2.33;;
17592;SDS011;8915;51.760;14.300;2023-02-22T03:08:52;12.33;;;2.63;;
17592;SDS011;8915;51.760;14.300;2023-02-22T03:11:25;6.17;;;2.17;;
17592;SDS011;8915;51.760;14.300;2023-02-22T03:13:58;5.47;;;2.23;;
17592;SDS011;8915;51.760;14.300;2023-02-22T03:16:32;6.37;;;2.30;;
17592;SDS011;8915;51.760;14.300;2023-02-22T03:19:11;8.07;;;2.73;;
17592;SDS011;8915;51.760;14.300;2023-02-22T03:21:45;4.80;;;1.93;;
17592;SDS011;8915;51.760;14.300;2023-02-22T03:24:21;5.50;;;2.10;;
17592;SDS011;8915;51.760;14.300;2023-02-22T03:26:53;6.53;;;1.90;;
17592;SDS011;8915;51.760;14.300;2023-02-22T03:29:28;9.20;;;2.53;;
17592;SDS011;8915;51.760;14.300;2023-02-22T03:32:00;4.47;;;1.80;;
17592;SDS011;8915;51.760;14.300;2023-02-22T03:34:35;9.50;;;2.43;;
17592;SDS011;8915;51.760;14.300;2023-02-22T03:37:06;6.97;;;2.17;;
17592;SDS011;8915;51.760;14.300;2023-02-22T03:39:40;6.73;;;2.10;;
17592;SDS011;8915;51.760;14.300;2023-02-22T03:42:10;3.73;;;2.20;;
17592;SDS011;8915;51.760;14.300;2023-02-22T03:44:41;9.00;;;2.17;;
17592;SDS011;8915;51.760;14.300;2023-02-22T03:47:13;9.07;;;2.50;;
17592;SDS011;8915;51.760;14.300;2023-02-22T03:49:46;9.20;;;2.97;;
17592;SDS011;8915;51.760;14.300;2023-02-22T03:52:17;6.57;;;2.57;;
17592;SDS011;8915;51.760;14.300;2023-02-22T03:54:47;5.87;;;2.03;;
17592;SDS011;8915;51.760;14.300;2023-02-22T03:57:19;9.20;;;2.40;;
17592;SDS011;8915;51.760;14.300;2023-02-22T04:00:00;7.10;;;2.23;;
17592;SDS011;8915;51.760;14.300;2023-02-22T04:02:38;9.37;;;2.43;;
17592;SDS011;8915;51.760;14.300;2023-02-22T04:05:07;6.97;;;2.23;;
17592;SDS011;8915;51.760;14.300;2023-02-22T04:07:34;7.33;;;2.43;;
17592;SDS011;8915;51.760;14.300;2023-02-22T04:10:00;6.90;;;2.20;;
17592;SDS011;8915;51.760;14.300;2023-02-22T04:12:30;6.33;;;2.30;;
17592;SDS011;8915;51.760;14.300;2023-02-22T04:15:00;7.53;;;2.33;;
17592;SDS011;8915;51.760;14.300;2023-02-22T04:17:28;6.13;;;2.43;;
17592;SDS011;8915;51.760;14.300;2023-02-22T04:19:54;13.33;;;2.23;;
17592;SDS011;8915;51.760;14.300;2023-02-22T04:22:24;7.43;;;2.50;;
17592;SDS011;8915;51.760;14.300;2023-02-22T04:24:51;6.40;;;2.43;;
17592;SDS011;8915;51.760;14.300;2023-02-22T04:27:19;9.13;;;2.50;;
17592;SDS011;8915;51.760;14.300;2023-02-22T04:29:46;6.73;;;2.13;;
17592;SDS011;8915;51.760;14.300;2023-02-22T04:32:13;6.67;;;2.10;;
17592;SDS011;8915;51.760;14.300;2023-02-22T04:34:40;11.03;;;3.13;;
17592;SDS011;8915;51.760;14.300;2023-02-22T04:37:06;7.10;;;3.03;;
17592;SDS011;8915;51.760;14.300;2023-02-22T04:39:35;9.27;;;4.03;;
17592;SDS011;8915;51.760;14.300;2023-02-22T04:42:02;9.13;;;3.73;;
17592;SDS011;8915;51.760;14.300;2023-02-22T04:44:30;13.37;;;4.47;;
17592;SDS011;8915;51.760;14.300;2023-02-22T04:46:57;7.93;;;3.67;;
17592;SDS011;8915;51.760;14.300;2023-02-22T04:49:24;7.83;;;3.50;;
17592;SDS011;8915;51.760;14.300;2023-02-22T04:51:52;6.40;;;2.67;;
17592;SDS011;8915;51.760;14.300;2023-02-22T04:54:23;7.63;;;2.33;;
17592;SDS011;8915;51.760;14.300;2023-02-22T04:56:51;11.63;;;2.67;;
17592;SDS011;8915;51.760;14.300;2023-02-22T04:59:17;6.77;;;2.53;;
17592;SDS011;8915;51.760;14.300;2023-02-22T05:01:50;9.50;;;2.93;;
17592;SDS011;8915;51.760;14.300;2023-02-22T05:04:17;6.07;;;2.83;;
17592;SDS011;8915;51.760;14.300;2023-02-22T05:06:43;11.00;;;2.37;;
17592;SDS011;8915;51.760;14.300;2023-02-22T05:09:10;5.50;;;2.57;;
17592;SDS011;8915;51.760;14.300;2023-02-22T05:11:37;8.07;;;1.93;;
17592;SDS011;8915;51.760;14.300;2023-02-22T05:14:04;4.87;;;2.70;;
17592;SDS011;8915;51.760;14.300;2023-02-22T05:16:31;7.97;;;2.13;;
17592;SDS011;8915;51.760;14.300;2023-02-22T05:18:58;6.33;;;2.20;;
17592;SDS011;8915;51.760;14.300;2023-02-22T05:21:24;6.27;;;2.10;;
17592;SDS011;8915;51.760;14.300;2023-02-22T05:23:51;11.27;;;2.70;;
17592;SDS011;8915;51.760;14.300;2023-02-22T05:26:17;6.10;;;2.03;;
17592;SDS011;8915;51.760;14.300;2023-02-22T05:28:44;7.77;;;2.30;;
17592;SDS011;8915;51.760;14.300;2023-02-22T05:31:12;9.83;;;2.07;;
17592;SDS011;8915;51.760;14.300;2023-02-22T05:33:38;7.67;;;2.23;;
17592;SDS011;8915;51.760;14.300;2023-02-22T05:36:05;10.30;;;2.23;;
17592;SDS011;8915;51.760;14.300;2023-02-22T05:38:33;7.23;;;2.40;;
17592;SDS011;8915;51.760;14.300;2023-02-22T05:41:07;10.30;;;3.00;;
17592;SDS011;8915;51.760;14.300;2023-02-22T05:43:33;5.80;;;2.33;;
17592;SDS011;8915;51.760;14.300;2023-02-22T05:46:00;9.73;;;2.57;;
17592;SDS011;8915;51.760;14.300;2023-02-22T05:48:28;6.23;;;2.53;;
17592;SDS011;8915;51.760;14.300;2023-02-22T05:50:55;8.63;;;2.67;;
17592;SDS011;8915;51.760;14.300;2023-02-22T05:53:21;6.87;;;2.37;;
17592;SDS011;8915;51.760;14.300;2023-02-22T05:55:48;6.13;;;2.33;;
17592;SDS011;8915;51.760;14.300;2023-02-22T05:58:15;8.70;;;2.53;;
17592;SDS011;8915;51.760;14.300;2023-02-22T06:00:41;8.97;;;3.03;;
17592;SDS011;8915;51.760;14.300;2023-02-22T06:03:11;6.43;;;2.43;;
17592;SDS011;8915;51.760;14.300;2023-02-22T06:05:41;12.50;;;3.50;;
17592;SDS011;8915;51.760;14.300;2023-02-22T06:08:10;7.70;;;2.80;;
17592;SDS011;8915;51.760;14.300;2023-02-22T06:10:36;21.80;;;12.43;;
17592;SDS011;8915;51.760;14.300;2023-02-22T06:13:03;18.67;;;7.70;;
17592;SDS011;8915;51.760;14.300;2023-02-22T06:15:30;13.00;;;6.47;;
17592;SDS011;8915;51.760;14.300;2023-02-22T06:17:57;17.93;;;4.33;;
17592;SDS011;8915;51.760;14.300;2023-02-22T06:20:25;9.73;;;2.80;;
17592;SDS011;8915;51.760;14.300;2023-02-22T06:22:54;8.13;;;3.60;;
17592;SDS011;8915;51.760;14.300;2023-02-22T06:25:23;16.93;;;3.90;;
17592;SDS011;8915;51.760;14.300;2023-02-22T06:27:50;13.00;;;3.03;;
17592;SDS011;8915;51.760;14.300;2023-02-22T06:30:19;11.60;;;3.63;;
17592;SDS011;8915;51.760;14.300;2023-02-22T06:32:47;11.97;;;2.83;;
17592;SDS011;8915;51.760;14.300;2023-02-22T06:35:13;9.03;;;2.87;;
17592;SDS011;8915;51.760;14.300;2023-02-22T06:37:40;9.67;;;3.03;;
17592;SDS011;8915;51.760;14.300;2023-02-22T06:40:09;7.37;;;3.27;;
17592;SDS011;8915;51.760;14.300;2023-02-22T06:42:36;9.37;;;3.97;;
17592;SDS011;8915;51.760;14.300;2023-02-22T06:45:02;11.70;;;3.20;;
17592;SDS011;8915;51.760;14.300;2023-02-22T06:47:29;7.70;;;3.03;;
17592;SDS011;8915;51.760;14.300;2023-02-22T06:49:57;11.23;;;3.13;;
17592;SDS011;8915;51.760;14.300;2023-02-22T06:52:24;11.73;;;3.47;;
17592;SDS011;8915;51.760;14.300;2023-02-22T06:54:51;12.67;;;3.73;;
17592;SDS011;8915;51.760;14.300;2023-02-22T06:57:19;18.23;;;4.20;;
17592;SDS011;8915;51.760;14.300;2023-02-22T06:59:46;9.67;;;2.63;;
17592;SDS011;8915;51.760;14.300;2023-02-22T07:02:13;10.60;;;3.77;;
17592;SDS011;8915;51.760;14.300;2023-02-22T07:04:40;16.70;;;4.63;;
17592;SDS011;8915;51.760;14.300;2023-02-22T07:07:06;31.87;;;12.33;;
17592;SDS011;8915;51.760;14.300;2023-02-22T07:09:33;55.80;;;22.80;;
17592;SDS011;8915;51.760;14.300;2023-02-22T07:11:59;81.67;;;32.30;;
17592;SDS011;8915;51.760;14.300;2023-02-22T07:14:29;33.73;;;13.27;;
17592;SDS011;8915;51.760;14.300;2023-02-22T07:16:56;33.63;;;13.97;;
17592;SDS011;8915;51.760;14.300;2023-02-22T07:19:22;23.37;;;8.80;;
17592;SDS011;8915;51.760;14.300;2023-02-22T07:21:49;18.83;;;8.17;;
17592;SDS011;8915;51.760;14.300;2023-02-22T07:24:23;20.97;;;9.87;;
17592;SDS011;8915;51.760;14.300;2023-02-22T07:26:50;14.23;;;6.17;;
17592;SDS011;8915;51.760;14.300;2023-02-22T07:29:16;14.50;;;5.80;;
17592;SDS011;8915;51.760;14.300;2023-02-22T07:31:44;14.40;;;4.40;;
17592;SDS011;8915;51.760;14.300;2023-02-22T07:34:11;8.43;;;4.03;;
17592;SDS011;8915;51.760;14.300;2023-02-22T07:36:38;11.83;;;4.43;;
17592;SDS011;8915;51.760;14.300;2023-02-22T07:39:05;9.20;;;4.20;;
17592;SDS011;8915;51.760;14.300;2023-02-22T07:41:32;9.53;;;4.67;;
17592;SDS011;8915;51.760;14.300;2023-02-22T07:43:59;8.30;;;4.27;;
17592;SDS011;8915;51.760;14.300;2023-02-22T07:46:27;14.63;;;4.40;;
17592;SDS011;8915;51.760;14.300;2023-02-22T07:48:55;17.17;;;4.77;;
17592;SDS011;8915;51.760;14.300;2023-02-22T07:51:21;17.33;;;6.50;;
17592;SDS011;8915;51.760;14.300;2023-02-22T07:53:48;26.93;;;10.63;;
17592;SDS011;8915;51.760;14.300;2023-02-22T07:56:14;31.37;;;15.23;;
17592;SDS011;8915;51.760;14.300;2023-02-22T07:58:42;23.83;;;10.27;;
17592;SDS011;8915;51.760;14.300;2023-02-22T08:01:08;24.10;;;12.67;;
17592;SDS011;8915;51.760;14.300;2023-02-22T08:03:35;22.80;;;9.10;;
17592;SDS011;8915;51.760;14.300;2023-02-22T08:06:03;24.20;;;9.10;;
17592;SDS011;8915;51.760;14.300;2023-02-22T08:08:31;10.57;;;5.87;;
17592;SDS011;8915;51.760;14.300;2023-02-22T08:10:58;17.70;;;5.80;;
17592;SDS011;8915;51.760;14.300;2023-02-22T08:13:25;12.13;;;4.70;;
17592;SDS011;8915;51.760;14.300;2023-02-22T08:15:52;13.97;;;5.07;;
17592;SDS011;8915;51.760;14.300;2023-02-22T08:18:20;11.63;;;4.13;;
17592;SDS011;8915;51.760;14.300;2023-02-22T08:20:48;12.17;;;4.00;;
17592;SDS011;8915;51.760;14.300;2023-02-22T08:23:18;10.33;;;4.50;;
17592;SDS011;8915;51.760;14.300;2023-02-22T08:25:46;13.93;;;4.90;;
17592;SDS011;8915;51.760;14.300;2023-02-22T08:28:13;9.27;;;4.50;;
17592;SDS011;8915;51.760;14.300;2023-02-22T08:30:41;17.10;;;4.13;;
17592;SDS011;8915;51.760;14.300;2023-02-22T08:33:08;13.57;;;4.17;;
17592;SDS011;8915;51.760;14.300;2023-02-22T08:35:38;11.10;;;4.03;;
17592;SDS011;8915;51.760;14.300;2023-02-22T08:38:05;11.20;;;3.43;;
17592;SDS011;8915;51.760;14.300;2023-02-22T08:40:34;8.77;;;3.93;;
17592;SDS011;8915;51.760;14.300;2023-02-22T08:43:02;11.77;;;3.90;;
17592;SDS011;8915;51.760;14.300;2023-02-22T08:45:30;8.47;;;3.57;;
17592;SDS011;8915;51.760;14.300;2023-02-22T08:47:57;10.50;;;3.37;;
17592;SDS011;8915;51.760;14.300;2023-02-22T08:50:25;8.90;;;3.60;;
17592;SDS011;8915;51.760;14.300;2023-02-22T08:52:53;10.60;;;3.47;;
17592;SDS011;8915;51.760;14.300;2023-02-22T08:55:23;14.03;;;3.97;;
17592;SDS011;8915;51.760;14.300;2023-02-22T08:57:55;14.83;;;3.93;;
17592;SDS011;8915;51.760;14.300;2023-02-22T09:00:22;16.00;;;4.00;;
17592;SDS011;8915;51.760;14.300;2023-02-22T09:02:49;26.70;;;13.23;;
17592;SDS011;8915;51.760;14.300;2023-02-22T09:05:15;20.07;;;9.60;;
17592;SDS011;8915;51.760;14.300;2023-02-22T09:07:42;11.13;;;6.03;;
17592;SDS011;8915;51.760;14.300;2023-02-22T09:10:10;8.27;;;3.60;;
17592;SDS011;8915;51.760;14.300;2023-02-22T09:12:39;14.30;;;3.77;;
17592;SDS011;8915;51.760;14.300;2023-02-22T09:15:07;9.90;;;3.40;;
17592;SDS011;8915;51.760;14.300;2023-02-22T09:17:34;7.97;;;3.50;;
17592;SDS011;8915;51.760;14.300;2023-02-22T09:20:01;7.00;;;3.27;;
17592;SDS011;8915;51.760;14.300;2023-02-22T09:22:28;9.30;;;3.40;;
17592;SDS011;8915;51.760;14.300;2023-02-22T09:24:54;14.23;;;2.87;;
17592;SDS011;8915;51.760;14.300;2023-02-22T09:27:20;11.07;;;3.57;;
17592;SDS011;8915;51.760;14.300;2023-02-22T09:29:47;11.30;;;3.17;;
17592;SDS011;8915;51.760;14.300;2023-02-22T09:32:15;11.43;;;3.07;;
17592;SDS011;8915;51.760;14.300;2023-02-22T09:34:42;11.57;;;3.77;;
17592;SDS011;8915;51.760;14.300;2023-02-22T09:37:09;7.83;;;3.63;;
17592;SDS011;8915;51.760;14.300;2023-02-22T09:39:36;6.93;;;2.53;;
17592;SDS011;8915;51.760;14.300;2023-02-22T09:42:06;8.77;;;2.67;;
17592;SDS011;8915;51.760;14.300;2023-02-22T09:44:39;8.03;;;3.13;;
17592;SDS011;8915;51.760;14.300;2023-02-22T09:47:11;8.70;;;3.00;;
17592;SDS011;8915;51.760;14.300;2023-02-22T09:49:45;7.60;;;2.97;;
17592;SDS011;8915;51.760;14.300;2023-02-22T09:52:23;10.03;;;3.00;;
17592;SDS011;8915;51.760;14.300;2023-02-22T09:54:54;8.13;;;2.43;;
17592;SDS011;8915;51.760;14.300;2023-02-22T09:57:32;7.23;;;2.80;;
17592;SDS011;8915;51.760;14.300;2023-02-22T10:00:05;11.23;;;2.73;;
17592;SDS011;8915;51.760;14.300;2023-02-22T10:02:43;9.10;;;2.47;;
17592;SDS011;8915;51.760;14.300;2023-02-22T10:05:16;14.23;;;2.60;;
17592;SDS011;8915;51.760;14.300;2023-02-22T10:07:50;11.67;;;3.33;;
17592;SDS011;8915;51.760;14.300;2023-02-22T10:10:20;5.97;;;2.17;;
17592;SDS011;8915;51.760;14.300;2023-02-22T10:12:52;12.50;;;3.70;;
17592;SDS011;8915;51.760;14.300;2023-02-22T10:15:28;12.20;;;2.57;;
17592;SDS011;8915;51.760;14.300;2023-02-22T10:18:03;10.00;;;2.33;;
17592;SDS011;8915;51.760;14.300;2023-02-22T10:20:51;11.27;;;3.30;;
17592;SDS011;8915;51.760;14.300;2023-02-22T10:23:28;7.40;;;2.57;;
17592;SDS011;8915;51.760;14.300;2023-02-22T10:26:02;6.67;;;2.77;;
17592;SDS011;8915;51.760;14.300;2023-02-22T10:28:39;9.50;;;3.10;;
17592;SDS011;8915;51.760;14.300;2023-02-22T10:31:13;11.73;;;2.63;;
17592;SDS011;8915;51.760;14.300;2023-02-22T10:33:47;9.93;;;2.70;;
17592;SDS011;8915;51.760;14.300;2023-02-22T10:36:21;9.73;;;2.63;;
17592;SDS011;8915;51.760;14.300;2023-02-22T10:38:50;9.63;;;2.57;;
17592;SDS011;8915;51.760;14.300;2023-02-22T10:41:23;9.50;;;2.50;;
17592;SDS011;8915;51.760;14.300;2023-02-22T10:43:53;11.03;;;2.87;;
17592;SDS011;8915;51.760;14.300;2023-02-22T10:46:20;7.03;;;2.27;;
17592;SDS011;8915;51.760;14.300;2023-02-22T10:48:48;7.93;;;2.03;;
17592;SDS011;8915;51.760;14.300;2023-02-22T10:51:16;10.20;;;2.03;;
17592;SDS011;8915;51.760;14.300;2023-02-22T10:53:44;7.00;;;2.40;;
17592;SDS011;8915;51.760;14.300;2023-02-22T10:56:22;11.40;;;2.50;;
17592;SDS011;8915;51.760;14.300;2023-02-22T10:58:50;7.03;;;2.03;;
17592;SDS011;8915;51.760;14.300;2023-02-22T11:01:20;9.07;;;2.30;;
17592;SDS011;8915;51.760;14.300;2023-02-22T11:04:00;5.33;;;1.93;;
17592;SDS011;8915;51.760;14.300;2023-02-22T11:06:33;7.03;;;1.93;;
17592;SDS011;8915;51.760;14.300;2023-02-22T11:09:09;7.70;;;2.07;;
17592;SDS011;8915;51.760;14.300;2023-02-22T11:11:39;12.10;;;2.77;;
17592;SDS011;8915;51.760;14.300;2023-02-22T11:14:08;6.33;;;1.93;;
17592;SDS011;8915;51.760;14.300;2023-02-22T11:16:36;9.17;;;2.60;;
17592;SDS011;8915;51.760;14.300;2023-02-22T11:19:16;8.77;;;2.33;;
17592;SDS011;8915;51.760;14.300;2023-02-22T11:21:47;5.87;;;1.73;;
17592;SDS011;8915;51.760;14.300;2023-02-22T11:24:19;4.10;;;1.90;;
17592;SDS011;8915;51.760;14.300;2023-02-22T11:26:49;5.43;;;2.13;;
17592;SDS011;8915;51.760;14.300;2023-02-22T11:29:17;8.47;;;2.50;;
17592;SDS011;8915;51.760;14.300;2023-02-22T11:31:46;7.30;;;1.80;;
17592;SDS011;8915;51.760;14.300;2023-02-22T11:34:25;8.37;;;2.43;;
17592;SDS011;8915;51.760;14.300;2023-02-22T11:36:54;7.30;;;2.07;;
17592;SDS011;8915;51.760;14.300;2023-02-22T11:39:23;6.87;;;2.37;;
17592;SDS011;8915;51.760;14.300;2023-02-22T11:41:51;11.17;;;2.87;;
17592;SDS011;8915;51.760;14.300;2023-02-22T11:44:20;6.43;;;1.93;;
17592;SDS011;8915;51.760;14.300;2023-02-22T11:46:49;4.97;;;1.77;;
17592;SDS011;8915;51.760;14.300;2023-02-22T11:49:20;6.60;;;1.77;;
17592;SDS011;8915;51.760;14.300;2023-02-22T11:51:56;9.43;;;2.40;;
17592;SDS011;8915;51.760;14.300;2023-02-22T11:54:39;7.27;;;2.43;;
17592;SDS011;8915;51.760;14.300;2023-02-22T11:57:22;4.00;;;1.70;;
17592;SDS011;8915;51.760;14.300;2023-02-22T12:00:05;7.03;;;2.07;;
17592;SDS011;8915;51.760;14.300;2023-02-22T12:02:44;6.87;;;2.80;;
17592;SDS011;8915;51.760;14.300;2023-02-22T12:05:25;6.27;;;1.87;;
17592;SDS011;8915;51.760;14.300;2023-02-22T12:08:05;2.63;;;1.50;;
17592;SDS011;8915;51.760;14.300;2023-02-22T12:10:49;3.90;;;1.63;;
17592;SDS011;8915;51.760;14.300;2023-02-22T12:13:31;7.27;;;1.93;;
17592;SDS011;8915;51.760;14.300;2023-02-22T12:16:08;8.50;;;1.77;;
17592;SDS011;8915;51.760;14.300;2023-02-22T12:18:47;8.07;;;2.17;;
17592;SDS011;8915;51.760;14.300;2023-02-22T12:21:24;3.87;;;1.50;;
17592;SDS011;8915;51.760;14.300;2023-02-22T12:23:55;8.27;;;2.30;;
17592;SDS011;8915;51.760;14.300;2023-02-22T12:26:29;5.90;;;2.10;;
17592;SDS011;8915;51.760;14.300;2023-02-22T12:29:01;5.27;;;1.80;;
17592;SDS011;8915;51.760;14.300;2023-02-22T12:31:35;7.27;;;2.53;;
17592;SDS011;8915;51.760;14.300;2023-02-22T12:34:06;8.00;;;2.23;;
17592;SDS011;8915;51.760;14.300;2023-02-22T12:36:39;6.23;;;2.23;;
17592;SDS011;8915;51.760;14.300;2023-02-22T12:39:23;8.07;;;2.13;;
17592;SDS011;8915;51.760;14.300;2023-02-22T12:41:58;4.60;;;2.17;;
17592;SDS011;8915;51.760;14.300;2023-02-22T12:44:30;8.60;;;2.47;;
17592;SDS011;8915;51.760;14.300;2023-02-22T12:47:00;4.20;;;1.80;;
17592;SDS011;8915;51.760;14.300;2023-02-22T12:49:30;6.63;;;2.50;;
17592;SDS011;8915;51.760;14.300;2023-02-22T12:52:06;6.67;;;1.80;;
17592;SDS011;8915;51.760;14.300;2023-02-22T12:54:40;7.90;;;2.17;;
17592;SDS011;8915;51.760;14.300;2023-02-22T12:57:15;5.20;;;1.80;;
17592;SDS011;8915;51.760;14.300;2023-02-22T12:59:50;5.43;;;1.83;;
17592;SDS011;8915;51.760;14.300;2023-02-22T13:02:21;5.63;;;2.20;;
17592;SDS011;8915;51.760;14.300;2023-02-22T13:04:53;9.47;;;2.40;;
17592;SDS011;8915;51.760;14.300;2023-02-22T13:07:24;8.80;;;2.70;;
17592;SDS011;8915;51.760;14.300;2023-02-22T13:10:03;7.97;;;2.20;;
17592;SDS011;8915;51.760;14.300;2023-02-22T13:12:45;7.13;;;1.93;;
17592;SDS011;8915;51.760;14.300;2023-02-22T13:15:19;6.20;;;2.27;;
17592;SDS011;8915;51.760;14.300;2023-02-22T13:17:54;8.73;;;2.30;;
17592;SDS011;8915;51.760;14.300;2023-02-22T13:20:29;13.23;;;5.90;;
17592;SDS011;8915;51.760;14.300;2023-02-22T13:23:02;15.37;;;4.80;;
17592;SDS011;8915;51.760;14.300;2023-02-22T13:25:35;10.97;;;4.97;;
17592;SDS011;8915;51.760;14.300;2023-02-22T13:28:13;5.20;;;1.80;;
17592;SDS011;8915;51.760;14.300;2023-02-22T13:30:47;5.50;;;1.90;;
17592;SDS011;8915;51.760;14.300;2023-02-22T13:33:28;6.30;;;2.03;;
17592;SDS011;8915;51.760;14.300;2023-02-22T13:36:09;7.43;;;2.07;;
17592;SDS011;8915;51.760;14.300;2023-02-22T13:38:49;7.73;;;2.20;;
17592;SDS011;8915;51.760;14.300;2023-02-22T13:41:42;14.10;;;4.43;;
17592;SDS011;8915;51.760;14.300;2023-02-22T13:47:44;7.17;;;2.40;;
17592;SDS011;8915;51.760;14.300;2023-02-22T13:50:28;6.67;;;2.17;;
17592;SDS011;8915;51.760;14.300;2023-02-22T13:53:25;6.97;;;2.27;;
17592;SDS011;8915;51.760;14.300;2023-02-22T13:55:57;7.50;;;2.70;;
17592;SDS011;8915;51.760;14.300;2023-02-22T13:58:28;6.60;;;1.83;;
17592;SDS011;8915;51.760;14.300;2023-02-22T14:00:56;5.03;;;2.33;;
17592;SDS011;8915;51.760;14.300;2023-02-22T14:03:28;4.43;;;2.13;;
17592;SDS011;8915;51.760;14.300;2023-02-22T14:06:00;10.97;;;3.87;;
17592;SDS011;8915;51.760;14.300;2023-02-22T14:08:38;3.33;;;1.87;;
17592;SDS011;8915;51.760;14.300;2023-02-22T14:11:06;7.90;;;2.47;;
17592;SDS011;8915;51.760;14.300;2023-02-22T14:14:16;9.17;;;2.17;;
17592;SDS011;8915;51.760;14.300;2023-02-22T14:16:44;4.73;;;2.30;;
17592;SDS011;8915;51.760;14.300;2023-02-22T14:20:05;8.27;;;3.23;;
17592;SDS011;8915;51.760;14.300;2023-02-22T14:22:45;8.33;;;2.67;;
17592;SDS011;8915;51.760;14.300;2023-02-22T14:25:35;8.43;;;2.50;;
17592;SDS011;8915;51.760;14.300;2023-02-22T14:28:04;7.30;;;2.50;;
17592;SDS011;8915;51.760;14.300;2023-02-22T14:30:33;5.83;;;1.90;;
17592;SDS011;8915;51.760;14.300;2023-02-22T14:33:05;8.53;;;2.17;;
17592;SDS011;8915;51.760;14.300;2023-02-22T14:36:09;10.50;;;2.80;;
17592;SDS011;8915;51.760;14.300;2023-02-22T14:38:36;15.73;;;6.87;;
17592;SDS011;8915;51.760;14.300;2023-02-22T14:41:03;8.27;;;2.93;;
17592;SDS011;8915;51.760;14.300;2023-02-22T14:43:33;4.57;;;2.00;;
17592;SDS011;8915;51.760;14.300;2023-02-22T14:46:01;5.83;;;2.10;;
17592;SDS011;8915;51.760;14.300;2023-02-22T14:48:31;6.80;;;2.50;;
17592;SDS011;8915;51.760;14.300;2023-02-22T14:51:04;9.20;;;2.57;;
17592;SDS011;8915;51.760;14.300;2023-02-22T14:53:35;7.70;;;2.00;;
17592;SDS011;8915;51.760;14.300;2023-02-22T14:56:06;8.47;;;1.90;;
17592;SDS011;8915;51.760;14.300;2023-02-22T14:58:36;8.90;;;1.80;;
17592;SDS011;8915;51.760;14.300;2023-02-22T15:01:19;9.37;;;2.37;;
17592;SDS011;8915;51.760;14.300;2023-02-22T15:03:50;8.13;;;1.63;;
17592;SDS011;8915;51.760;14.300;2023-02-22T15:06:23;8.17;;;2.30;;
17592;SDS011;8915;51.760;14.300;2023-02-22T15:09:04;4.77;;;2.27;;
17592;SDS011;8915;51.760;14.300;2023-02-22T15:11:32;6.00;;;2.40;;
17592;SDS011;8915;51.760;14.300;2023-02-22T15:14:01;5.53;;;2.40;;